createdAt,value
2023-03-05T00:01:45.907Z,14.82
2023-03-05T00:04:47.895Z,14.80
2023-03-05T00:07:49.926Z,21.08
2023-03-05T00:10:58.863Z,17.50
2023-03-05T00:14:01.595Z,16.63
2023-03-05T00:17:03.601Z,11.38
2023-03-05T00:20:06.015Z,19.08
2023-03-05T00:23:08.104Z,14.30
2023-03-05T00:26:10.195Z,12.27
2023-03-05T00:29:18.455Z,17.80
2023-03-05T00:32:20.545Z,15.13
2023-03-05T00:35:22.876Z,17.65
2023-03-05T00:38:24.926Z,14.98
2023-03-05T00:41:27.600Z,15.32
2023-03-05T00:44:29.602Z,14.83
2023-03-05T00:47:31.570Z,11.43
2023-03-05T00:50:33.648Z,14.60
2023-03-05T00:53:35.951Z,21.73
2023-03-05T00:56:38.024Z,20.33
2023-03-05T00:59:40.370Z,12.68
2023-03-05T01:02:42.471Z,16.65
2023-03-05T01:05:44.517Z,13.40
2023-03-05T01:08:46.622Z,16.63
2023-03-05T01:11:48.852Z,17.88
2023-03-05T01:14:50.854Z,18.60
2023-03-05T01:17:52.911Z,16.10
2023-03-05T01:20:55.114Z,20.60
2023-03-05T01:23:57.150Z,15.33
2023-03-05T01:26:59.133Z,17.75
2023-03-05T01:30:01.271Z,12.18
2023-03-05T01:33:03.783Z,16.13
2023-03-05T01:36:11.446Z,18.27
2023-03-05T01:39:13.835Z,14.57
2023-03-05T01:42:15.778Z,13.60
2023-03-05T01:45:18.455Z,20.57
2023-03-05T01:48:20.501Z,20.02
2023-03-05T01:51:25.258Z,20.70
2023-03-05T01:54:29.479Z,15.70
2023-03-05T01:57:43.510Z,17.40
2023-03-05T02:00:47.043Z,18.83
2023-03-05T02:03:49.226Z,22.58
2023-03-05T02:06:51.717Z,19.30
2023-03-05T02:09:53.811Z,18.50
2023-03-05T02:12:56.925Z,15.95
2023-03-05T02:15:59.923Z,20.37
2023-03-05T02:19:03.221Z,16.83
2023-03-05T02:22:05.289Z,20.67
2023-03-05T02:25:13.415Z,18.77
2023-03-05T02:28:15.435Z,17.27
2023-03-05T02:31:19.244Z,17.20
2023-03-05T02:34:21.884Z,22.77
2023-03-05T02:37:25.098Z,18.45
2023-03-05T02:40:27.310Z,17.58
2023-03-05T02:43:29.411Z,16.58
2023-03-05T02:46:31.475Z,18.03
2023-03-05T02:49:33.705Z,20.67
2023-03-05T02:52:36.082Z,17.17
2023-03-05T02:55:39.980Z,19.07
2023-03-05T02:58:42.178Z,17.70
2023-03-05T03:01:44.309Z,18.60
2023-03-05T03:04:46.340Z,13.05
2023-03-05T03:07:48.353Z,18.67
2023-03-05T03:10:50.473Z,17.50
2023-03-05T03:13:52.539Z,14.48
2023-03-05T03:16:54.575Z,14.77
2023-03-05T03:19:56.588Z,17.50
2023-03-05T03:22:58.594Z,17.20
2023-03-05T03:26:00.599Z,19.70
2023-03-05T03:29:02.643Z,21.88
2023-03-05T03:32:04.874Z,20.35
2023-03-05T03:35:07.511Z,10.68
2023-03-05T03:38:09.576Z,18.95
2023-03-05T03:41:11.608Z,16.38
2023-03-05T03:44:13.966Z,21.27
2023-03-05T03:47:16.353Z,18.73
2023-03-05T03:50:19.045Z,15.70
2023-03-05T03:53:21.074Z,22.80
2023-03-05T03:56:23.146Z,21.60
2023-03-05T03:59:25.203Z,14.13
2023-03-05T04:02:27.583Z,14.93
2023-03-05T04:05:29.557Z,23.13
2023-03-05T04:08:31.557Z,18.15
2023-03-05T04:11:33.875Z,14.27
2023-03-05T04:14:36.187Z,16.38
2023-03-05T04:17:38.356Z,18.93
2023-03-05T04:20:40.387Z,16.75
2023-03-05T04:23:42.364Z,17.13
2023-03-05T04:26:44.303Z,16.47
2023-03-05T04:29:46.338Z,19.65
2023-03-05T04:32:48.311Z,18.80
2023-03-05T04:35:50.520Z,18.73
2023-03-05T04:38:52.507Z,19.63
2023-03-05T04:41:54.485Z,16.17
2023-03-05T04:44:56.482Z,22.05
2023-03-05T04:47:58.712Z,16.47
2023-03-05T04:51:00.725Z,17.00
2023-03-05T04:54:02.766Z,23.45
2023-03-05T04:57:04.776Z,19.87
2023-03-05T05:00:12.468Z,16.15
2023-03-05T05:03:14.598Z,20.92
2023-03-05T05:06:16.600Z,19.33
2023-03-05T05:09:18.626Z,14.80
2023-03-05T05:12:20.749Z,11.68
2023-03-05T05:15:22.813Z,16.17
2023-03-05T05:18:25.094Z,20.00
2023-03-05T05:21:27.075Z,23.27
2023-03-05T05:24:29.128Z,17.92
2023-03-05T05:27:31.191Z,21.50
2023-03-05T05:30:33.230Z,18.38
2023-03-05T05:33:35.352Z,15.10
2023-03-05T05:36:37.351Z,18.05
2023-03-05T05:39:39.398Z,16.70
2023-03-05T05:42:41.495Z,17.45
2023-03-05T05:45:43.763Z,20.02
2023-03-05T05:48:45.937Z,17.37
2023-03-05T05:51:47.975Z,16.92
2023-03-05T05:54:50.061Z,16.60
2023-03-05T05:57:52.035Z,15.60
2023-03-05T06:00:54.067Z,14.43
2023-03-05T06:03:56.280Z,13.32
2023-03-05T06:06:58.955Z,20.55
2023-03-05T06:10:01.002Z,13.85
2023-03-05T06:13:02.991Z,15.57
2023-03-05T06:16:06.678Z,15.52
2023-03-05T06:19:09.358Z,18.37
2023-03-05T06:22:11.487Z,17.95
2023-03-05T06:25:13.546Z,14.75
2023-03-05T06:28:15.551Z,18.17
2023-03-05T06:31:19.640Z,11.85
2023-03-05T06:34:21.855Z,16.35
2023-03-05T06:37:23.876Z,16.73
2023-03-05T06:40:25.967Z,16.92
2023-03-05T06:43:28.046Z,17.58
2023-03-05T06:46:31.379Z,14.82
2023-03-05T06:49:33.444Z,22.03
2023-03-05T06:52:35.427Z,14.32
2023-03-05T06:55:39.826Z,17.48
2023-03-05T06:58:42.426Z,13.30
2023-03-05T07:01:44.896Z,10.57
2023-03-05T07:04:47.107Z,13.52
2023-03-05T07:07:49.059Z,20.65
2023-03-05T07:10:51.098Z,14.75
2023-03-05T07:13:53.261Z,10.80
2023-03-05T07:16:55.289Z,20.23
2023-03-05T07:19:57.281Z,16.70
2023-03-05T07:22:59.335Z,17.58
2023-03-05T07:26:01.962Z,16.08
2023-03-05T07:29:04.202Z,13.50
2023-03-05T07:32:06.222Z,20.48
2023-03-05T07:35:08.460Z,20.50
2023-03-05T07:38:10.446Z,16.38
2023-03-05T07:41:13.801Z,14.65
2023-03-05T07:44:16.834Z,25.48
2023-03-05T07:47:19.035Z,17.52
2023-03-05T07:50:21.060Z,18.50
2023-03-05T07:53:23.207Z,18.13
2023-03-05T07:56:32.470Z,16.65
2023-03-05T07:59:34.548Z,14.50
2023-03-05T08:02:36.547Z,14.07
2023-03-05T08:05:41.607Z,17.63
2023-03-05T08:08:43.674Z,13.63
2023-03-05T08:11:45.694Z,19.85
2023-03-05T08:14:48.013Z,18.52
2023-03-05T08:17:49.938Z,16.38
2023-03-05T08:20:51.995Z,18.17
2023-03-05T08:23:54.030Z,16.23
2023-03-05T08:26:57.456Z,20.05
2023-03-05T08:30:00.982Z,16.80
2023-03-05T08:33:03.008Z,14.40
2023-03-05T08:36:05.216Z,19.35
2023-03-05T08:39:08.638Z,14.57
2023-03-05T08:42:10.673Z,17.05
2023-03-05T08:45:12.850Z,16.15
2023-03-05T08:48:15.277Z,18.27
2023-03-05T08:51:18.626Z,15.70
2023-03-05T08:54:20.596Z,16.42
2023-03-05T08:57:22.604Z,20.42
2023-03-05T09:00:24.639Z,10.33
2023-03-05T09:03:26.946Z,16.50
2023-03-05T09:06:29.467Z,16.83
2023-03-05T09:09:33.021Z,18.33
2023-03-05T09:12:35.022Z,16.92
2023-03-05T09:15:37.216Z,8.43
2023-03-05T09:18:40.317Z,14.77
2023-03-05T09:21:42.435Z,27.47
2023-03-05T09:24:44.427Z,21.27
2023-03-05T09:27:46.454Z,17.25
2023-03-05T09:30:48.918Z,18.40
2023-03-05T09:33:51.013Z,17.90
2023-03-05T09:36:53.094Z,17.92
2023-03-05T09:39:55.597Z,25.55
2023-03-05T09:42:57.637Z,20.83
2023-03-05T09:46:12.019Z,20.98
2023-03-05T09:49:16.170Z,21.92
2023-03-05T09:52:22.796Z,22.83
2023-03-05T09:55:36.922Z,18.42
2023-03-05T09:58:42.000Z,19.20
2023-03-05T10:01:44.895Z,18.53
2023-03-05T10:04:50.003Z,20.05
2023-03-05T10:08:01.203Z,18.58
2023-03-05T10:11:05.380Z,19.45
2023-03-05T10:14:13.876Z,19.25
2023-03-05T10:17:21.741Z,20.38
2023-03-05T10:20:42.839Z,14.50
2023-03-05T10:23:50.870Z,16.27
2023-03-05T10:27:02.044Z,17.05
2023-03-05T10:30:42.577Z,16.67
2023-03-05T10:33:47.131Z,19.50
2023-03-05T10:36:56.682Z,17.05
2023-03-05T10:40:16.421Z,16.70
2023-03-05T10:43:23.996Z,17.98
2023-03-05T10:46:29.263Z,21.85
2023-03-05T10:49:35.246Z,19.00
2023-03-05T10:52:40.726Z,15.02
2023-03-05T10:55:42.783Z,22.03
2023-03-05T10:58:44.762Z,14.95
2023-03-05T11:02:01.280Z,15.88
2023-03-05T11:05:05.213Z,15.63
2023-03-05T11:08:24.306Z,15.48
2023-03-05T11:11:26.394Z,14.55
2023-03-05T11:14:33.461Z,15.63
2023-03-05T11:17:37.484Z,16.75
2023-03-05T11:20:40.009Z,16.25
2023-03-05T11:23:41.997Z,12.48
2023-03-05T11:26:51.303Z,14.47
2023-03-05T11:29:53.456Z,15.70
2023-03-05T11:33:14.526Z,14.02
2023-03-05T11:36:19.407Z,13.73
2023-03-05T11:39:22.653Z,11.75
2023-03-05T11:42:25.542Z,14.27
2023-03-05T11:45:28.353Z,12.23
2023-03-05T11:48:37.128Z,13.10
2023-03-05T11:51:48.929Z,9.23
2023-03-05T11:54:58.546Z,12.32
2023-03-05T11:58:12.515Z,14.98
2023-03-05T12:01:16.150Z,24.02
2023-03-05T12:04:18.990Z,14.13
2023-03-05T12:07:25.293Z,15.73
2023-03-05T12:10:28.399Z,16.83
2023-03-05T12:13:30.448Z,16.63
2023-03-05T12:16:32.438Z,17.35
2023-03-05T12:19:41.389Z,17.47
2023-03-05T12:22:43.630Z,18.75
2023-03-05T12:25:48.800Z,18.77
2023-03-05T12:28:54.307Z,13.98
2023-03-05T12:31:56.734Z,15.75
2023-03-05T12:34:59.503Z,16.65
2023-03-05T12:38:06.207Z,18.15
2023-03-05T12:41:26.941Z,8.57
2023-03-05T12:44:30.074Z,11.27
2023-03-05T12:47:32.113Z,8.38
2023-03-05T12:50:47.340Z,10.83
2023-03-05T12:53:51.288Z,9.65
2023-03-05T12:56:54.887Z,10.57
2023-03-05T13:00:08.667Z,8.25
2023-03-05T13:03:22.429Z,9.88
2023-03-05T13:06:29.236Z,11.05
2023-03-05T13:09:33.760Z,8.95
2023-03-05T13:12:36.398Z,8.83
2023-03-05T13:15:38.842Z,7.72
2023-03-05T13:18:42.049Z,10.77
2023-03-05T13:21:44.228Z,10.90
2023-03-05T13:24:47.221Z,10.48
2023-03-05T13:27:49.300Z,10.38
2023-03-05T13:30:56.702Z,13.68
2023-03-05T13:34:05.533Z,11.65
2023-03-05T13:37:16.740Z,13.45
2023-03-05T13:40:20.924Z,9.15
2023-03-05T13:43:22.920Z,11.07
2023-03-05T13:46:27.986Z,10.60
2023-03-05T13:49:30.007Z,13.68
2023-03-05T13:52:33.464Z,14.15
2023-03-05T13:55:35.516Z,12.18
2023-03-05T13:58:48.268Z,10.93
2023-03-05T14:01:51.021Z,9.85
2023-03-05T14:04:53.121Z,7.73
2023-03-05T14:07:56.788Z,11.95
2023-03-05T14:11:00.540Z,13.13
2023-03-05T14:14:06.793Z,11.98
2023-03-05T14:17:23.323Z,13.17
2023-03-05T14:20:30.015Z,10.77
2023-03-05T14:23:32.058Z,10.85
2023-03-05T14:26:40.668Z,12.43
2023-03-05T14:29:46.908Z,12.93
2023-03-05T14:32:49.716Z,13.75
2023-03-05T14:35:52.187Z,9.77
2023-03-05T14:38:54.272Z,9.43
2023-03-05T14:41:56.720Z,12.35
2023-03-05T14:45:00.392Z,14.50
2023-03-05T14:48:03.649Z,13.13
2023-03-05T14:51:07.095Z,10.57
2023-03-05T14:54:22.591Z,12.68
2023-03-05T14:57:29.105Z,15.23
2023-03-05T15:00:31.198Z,11.15
2023-03-05T15:03:33.586Z,6.95
2023-03-05T15:06:38.154Z,11.18
2023-03-05T15:09:40.267Z,9.35
2023-03-05T15:12:42.696Z,6.85
2023-03-05T15:15:45.324Z,11.98
2023-03-05T15:18:47.490Z,8.13
2023-03-05T15:21:49.558Z,7.03
2023-03-05T15:24:51.623Z,7.70
2023-03-05T15:27:53.713Z,8.23
2023-03-05T15:30:58.140Z,10.18
2023-03-05T15:34:02.079Z,13.15
2023-03-05T15:37:04.383Z,10.82
2023-03-05T15:40:06.730Z,8.18
2023-03-05T15:43:09.436Z,12.20
2023-03-05T15:46:11.508Z,7.88
2023-03-05T15:49:14.041Z,11.50
2023-03-05T15:52:16.017Z,11.77
2023-03-05T15:55:20.731Z,11.45
2023-03-05T15:58:22.700Z,9.63
2023-03-05T16:01:24.749Z,10.35
2023-03-05T16:04:26.794Z,8.88
2023-03-05T16:07:30.065Z,9.50
2023-03-05T16:10:33.038Z,16.10
2023-03-05T16:13:35.204Z,14.45
2023-03-05T16:16:38.245Z,11.05
2023-03-05T16:19:41.813Z,15.77
2023-03-05T16:22:44.555Z,14.77
2023-03-05T16:25:46.681Z,14.38
2023-03-05T16:28:48.692Z,13.30
2023-03-05T16:31:50.714Z,14.00
2023-03-05T16:34:52.793Z,11.13
2023-03-05T16:37:54.811Z,13.23
2023-03-05T16:41:07.890Z,11.48
2023-03-05T16:44:11.054Z,12.68
2023-03-05T16:47:13.123Z,11.52
2023-03-05T16:50:15.141Z,11.30
2023-03-05T16:53:17.156Z,12.55
2023-03-05T16:56:19.238Z,14.20
2023-03-05T16:59:21.209Z,16.20
2023-03-05T17:02:23.275Z,14.65
2023-03-05T17:05:28.282Z,13.38
2023-03-05T17:08:30.269Z,12.35
2023-03-05T17:11:32.258Z,13.25
2023-03-05T17:14:34.273Z,20.58
2023-03-05T17:17:37.828Z,23.33
2023-03-05T17:20:40.807Z,23.50
2023-03-05T17:23:43.024Z,25.40
2023-03-05T17:26:46.016Z,28.98
2023-03-05T17:29:48.139Z,19.87
2023-03-05T17:32:51.923Z,23.05
2023-03-05T17:35:54.029Z,18.08
2023-03-05T17:38:56.146Z,20.80
2023-03-05T17:41:58.180Z,14.07
2023-03-05T17:45:00.231Z,10.43
2023-03-05T17:48:02.516Z,15.07
2023-03-05T17:51:05.180Z,16.50
2023-03-05T17:54:07.196Z,16.05
2023-03-05T17:57:09.282Z,10.20
2023-03-05T18:00:16.719Z,16.97
2023-03-05T18:03:18.736Z,10.43
2023-03-05T18:06:20.747Z,10.63
2023-03-05T18:09:22.758Z,13.45
2023-03-05T18:12:24.943Z,11.25
2023-03-05T18:15:27.773Z,11.40
2023-03-05T18:18:29.801Z,14.50
2023-03-05T18:21:31.838Z,9.00
2023-03-05T18:24:33.857Z,7.30
2023-03-05T18:27:35.943Z,11.27
2023-03-05T18:30:38.331Z,9.60
2023-03-05T18:33:40.807Z,10.30
2023-03-05T18:36:42.796Z,11.65
2023-03-05T18:39:44.767Z,14.55
2023-03-05T18:42:46.743Z,13.45
2023-03-05T18:45:53.002Z,13.02
2023-03-05T18:48:55.092Z,12.40
2023-03-05T18:51:57.089Z,13.60
2023-03-05T18:54:59.118Z,9.73
2023-03-05T18:58:01.243Z,12.52
2023-03-05T19:01:03.719Z,9.83
2023-03-05T19:04:05.828Z,10.40
2023-03-05T19:07:07.916Z,10.45
2023-03-05T19:10:11.206Z,13.40
2023-03-05T19:13:35.947Z,11.65
2023-03-05T19:16:43.533Z,11.88
2023-03-05T19:19:55.464Z,13.95
2023-03-05T19:22:57.489Z,13.73
2023-03-05T19:26:00.563Z,15.88
2023-03-05T19:29:02.593Z,18.00
2023-03-05T19:32:05.183Z,18.50
2023-03-05T19:35:07.362Z,27.10
2023-03-05T19:38:09.378Z,19.45
2023-03-05T19:41:12.974Z,13.82
2023-03-05T19:44:15.154Z,15.85
2023-03-05T19:47:17.191Z,13.98
2023-03-05T19:50:19.236Z,19.23
2023-03-05T19:53:21.322Z,13.13
2023-03-05T19:56:23.494Z,11.45
2023-03-05T19:59:25.727Z,12.77
2023-03-05T20:02:27.702Z,13.97
2023-03-05T20:05:29.703Z,13.65
2023-03-05T20:08:32.249Z,13.70
2023-03-05T20:11:34.318Z,22.48
2023-03-05T20:14:36.390Z,11.60
2023-03-05T20:17:38.495Z,12.80
2023-03-05T20:20:40.498Z,15.05
2023-03-05T20:23:42.539Z,12.30
2023-03-05T20:26:45.520Z,12.18
2023-03-05T20:29:47.507Z,16.05
2023-03-05T20:32:49.517Z,12.00
2023-03-05T20:35:51.753Z,11.60
2023-03-05T20:38:53.849Z,11.38
2023-03-05T20:41:55.858Z,10.45
2023-03-05T20:44:57.811Z,9.95
2023-03-05T20:47:59.828Z,13.77
2023-03-05T20:51:12.182Z,11.75
2023-03-05T20:54:14.212Z,11.20
2023-03-05T20:57:16.185Z,12.95
2023-03-05T21:00:18.289Z,10.27
2023-03-05T21:03:20.311Z,15.43
2023-03-05T21:06:22.383Z,13.63
2023-03-05T21:09:24.543Z,13.02
2023-03-05T21:12:26.562Z,11.38
2023-03-05T21:15:29.220Z,17.38
2023-03-05T21:18:31.587Z,15.48
2023-03-05T21:21:33.666Z,14.40
2023-03-05T21:24:52.134Z,18.07
2023-03-05T21:28:16.471Z,20.20
2023-03-05T21:31:20.199Z,12.32
2023-03-05T21:34:22.201Z,13.20
2023-03-05T21:37:24.241Z,15.38
2023-03-05T21:40:26.794Z,11.02
2023-03-05T21:43:29.483Z,11.20
2023-03-05T21:46:31.593Z,12.75
2023-03-05T21:49:33.825Z,12.38
2023-03-05T21:52:35.839Z,11.77
2023-03-05T21:56:00.938Z,12.13
2023-03-05T21:59:03.161Z,12.82
2023-03-05T22:02:05.308Z,10.27
2023-03-05T22:05:08.159Z,13.97
2023-03-05T22:08:10.191Z,10.80
2023-03-05T22:11:13.300Z,12.60
2023-03-05T22:14:16.926Z,10.98
2023-03-05T22:17:20.002Z,12.90
2023-03-05T22:20:22.016Z,13.63
2023-03-05T22:23:25.323Z,12.45
2023-03-05T22:26:34.433Z,13.33
2023-03-05T22:29:36.406Z,9.52
2023-03-05T22:32:38.986Z,8.55
2023-03-05T22:35:41.608Z,9.70
2023-03-05T22:38:43.983Z,12.63
2023-03-05T22:41:46.082Z,11.73
2023-03-05T22:44:48.184Z,10.82
2023-03-05T22:47:50.589Z,6.43
2023-03-05T22:50:55.757Z,10.23
2023-03-05T22:53:57.819Z,14.13
2023-03-05T22:56:59.803Z,11.70
2023-03-05T23:00:01.856Z,12.80
2023-03-05T23:03:04.004Z,13.23
2023-03-05T23:06:06.426Z,10.47
2023-03-05T23:09:08.465Z,12.57
2023-03-05T23:12:11.448Z,11.35
2023-03-05T23:15:15.009Z,10.05
2023-03-05T23:18:17.053Z,11.32
2023-03-05T23:21:19.069Z,13.85
2023-03-05T23:24:21.060Z,13.20
2023-03-05T23:27:23.054Z,15.23
2023-03-05T23:30:29.184Z,12.23
2023-03-05T23:33:31.179Z,9.98
2023-03-05T23:36:33.183Z,10.30
2023-03-05T23:39:35.159Z,12.10
2023-03-05T23:42:38.273Z,11.55
2023-03-05T23:45:41.569Z,11.40
2023-03-05T23:48:43.630Z,11.95
2023-03-05T23:51:45.636Z,12.45
2023-03-05T23:54:47.666Z,10.52
2023-03-05T23:57:49.749Z,11.27
